Time;durP1;ratioP1;P1;durP2;ratioP2;P2;SDS_P1;SDS_P2;PMS_P1;PMS_P2;Temp;Humidity;BMP_temperature;BMP_pressure;BME280_temperature;BME280_humidity;BME280_pressure;Samples;Min_cycle;Max_cycle;Signal;HPM_P1;HPM_P2
2021/12/29 00:00:30;;;;;;;18.20;3.75;;;;;;;;;;4989434;28;20420;-62
2021/12/29 00:02:58;;;;;;;16.38;4.03;;;;;;;;;;4990800;28;20757;-60
2021/12/29 00:05:25;;;;;;;15.75;3.65;;;;;;;;;;4991907;28;20034;-61
2021/12/29 00:07:52;;;;;;;17.85;3.97;;;;;;;;;;4991941;28;20049;-62
2021/12/29 00:10:20;;;;;;;18.20;4.40;;;;;;;;;;4991794;28;20026;-63
2021/12/29 00:12:51;;;;;;;25.02;3.78;;;;;;;;;;4988204;28;20030;-64
2021/12/29 00:15:18;;;;;;;21.23;4.05;;;;;;;;;;4991711;28;20037;-63
2021/12/29 00:17:46;;;;;;;17.05;4.53;;;;;;;;;;4991766;28;20030;-64
2021/12/29 00:20:18;;;;;;;22.70;4.93;;;;;;;;;;4991685;28;20404;-62
2021/12/29 00:22:45;;;;;;;34.35;5.97;;;;;;;;;;4990680;28;20110;-62
2021/12/29 00:25:12;;;;;;;23.67;4.57;;;;;;;;;;4989501;28;20022;-64
2021/12/29 00:27:40;;;;;;;29.88;4.65;;;;;;;;;;4991746;28;20034;-64
2021/12/29 00:30:07;;;;;;;25.27;4.68;;;;;;;;;;4990094;28;20047;-63
2021/12/29 00:32:34;;;;;;;25.90;5.53;;;;;;;;;;4991263;28;20027;-63
2021/12/29 00:35:01;;;;;;;30.35;5.65;;;;;;;;;;4990156;28;20391;-63
2021/12/29 00:37:28;;;;;;;35.28;4.70;;;;;;;;;;4989711;28;20046;-61
2021/12/29 00:39:55;;;;;;;31.20;5.35;;;;;;;;;;4991603;28;20027;-64
2021/12/29 00:42:22;;;;;;;33.53;5.65;;;;;;;;;;4990638;28;20027;-64
2021/12/29 00:44:50;;;;;;;30.40;5.18;;;;;;;;;;4991663;28;20034;-65
2021/12/29 00:47:18;;;;;;;38.55;5.75;;;;;;;;;;4990803;28;20516;-63
2021/12/29 00:49:46;;;;;;;30.17;6.22;;;;;;;;;;4989928;28;20459;-65
2021/12/29 00:52:13;;;;;;;27.85;5.80;;;;;;;;;;4990722;28;20121;-62
2021/12/29 00:54:41;;;;;;;25.52;4.72;;;;;;;;;;4991185;28;20496;-65
2021/12/29 00:57:08;;;;;;;28.35;5.45;;;;;;;;;;4991282;28;20121;-63
2021/12/29 00:59:35;;;;;;;34.95;5.82;;;;;;;;;;4989762;28;20026;-64
2021/12/29 01:02:03;;;;;;;27.13;6.32;;;;;;;;;;4990363;28;20463;-64
2021/12/29 01:04:30;;;;;;;34.47;6.13;;;;;;;;;;4990837;28;20093;-63
2021/12/29 01:06:57;;;;;;;27.08;6.30;;;;;;;;;;4991274;28;20026;-64
2021/12/29 01:09:24;;;;;;;31.20;6.40;;;;;;;;;;4991357;28;20038;-64
2021/12/29 01:11:55;;;;;;;33.90;6.03;;;;;;;;;;4990132;28;20483;-62
2021/12/29 01:14:24;;;;;;;33.05;6.60;;;;;;;;;;4993623;28;20513;-64
2021/12/29 01:16:51;;;;;;;30.70;6.28;;;;;;;;;;4994956;28;20490;-64
2021/12/29 01:19:21;;;;;;;33.95;6.82;;;;;;;;;;4994709;28;20022;-64
2021/12/29 01:21:49;;;;;;;43.60;6.88;;;;;;;;;;4994574;28;20029;-62
2021/12/29 01:24:17;;;;;;;43.50;8.57;;;;;;;;;;4992201;28;20041;-63
2021/12/29 01:26:44;;;;;;;37.30;6.43;;;;;;;;;;4994088;28;20176;-62
2021/12/29 01:29:12;;;;;;;29.67;5.97;;;;;;;;;;4994438;28;20093;-63
2021/12/29 01:31:39;;;;;;;32.38;7.15;;;;;;;;;;4994599;28;20486;-61
2021/12/29 01:34:06;;;;;;;30.85;7.10;;;;;;;;;;4993631;28;20037;-62
2021/12/29 01:36:35;;;;;;;35.65;6.97;;;;;;;;;;4992210;28;20034;-62
2021/12/29 01:39:03;;;;;;;22.90;5.63;;;;;;;;;;4994202;28;20382;-61
2021/12/29 01:41:30;;;;;;;30.80;6.47;;;;;;;;;;4994506;28;20053;-63
2021/12/29 01:43:57;;;;;;;33.90;6.43;;;;;;;;;;4993745;28;20029;-62
2021/12/29 01:46:24;;;;;;;30.77;6.75;;;;;;;;;;4994095;28;20034;-62
2021/12/29 01:48:51;;;;;;;28.27;6.03;;;;;;;;;;4992053;28;20018;-61
2021/12/29 01:51:19;;;;;;;35.55;6.75;;;;;;;;;;4992788;28;20029;-63
2021/12/29 01:54:34;;;;;;;38.85;6.78;;;;;;;;;;4993638;28;20434;-62
2021/12/29 01:56:37;;;;;;;30.70;6.57;;;;;;;;;;4993547;28;20042;-62
2021/12/29 01:59:04;;;;;;;25.55;5.40;;;;;;;;;;4993787;28;20206;-62
2021/12/29 02:01:31;;;;;;;41.53;7.30;;;;;;;;;;4992245;28;20026;-61
2021/12/29 02:04:00;;;;;;;34.28;6.68;;;;;;;;;;4993029;28;20022;-61
2021/12/29 02:06:27;;;;;;;25.48;6.57;;;;;;;;;;4993404;28;20034;-61
2021/12/29 02:08:56;;;;;;;21.38;6.15;;;;;;;;;;4993567;28;20022;-62
2021/12/29 02:11:29;;;;;;;31.30;5.97;;;;;;;;;;4992726;28;20509;-60
2021/12/29 02:14:04;;;;;;;30.60;6.43;;;;;;;;;;4992487;28;20029;-61
2021/12/29 02:16:31;;;;;;;26.88;6.28;;;;;;;;;;4993994;28;20037;-61
2021/12/29 02:18:59;;;;;;;31.80;6.22;;;;;;;;;;4993819;28;20022;-62
2021/12/29 02:21:27;;;;;;;29.63;5.63;;;;;;;;;;4993617;28;20113;-61
2021/12/29 02:24:17;;;;;;;29.02;6.43;;;;;;;;;;4991104;28;20503;-60
2021/12/29 02:26:42;;;;;;;36.90;5.90;;;;;;;;;;4992695;28;20034;-62
2021/12/29 02:29:10;;;;;;;30.02;6.30;;;;;;;;;;4992839;28;20101;-60
2021/12/29 02:31:38;;;;;;;27.08;5.97;;;;;;;;;;4993150;28;20023;-61
2021/12/29 02:34:06;;;;;;;24.10;4.97;;;;;;;;;;4992769;28;20486;-61
2021/12/29 02:36:33;;;;;;;26.48;5.35;;;;;;;;;;4991140;28;20026;-61
2021/12/29 02:39:01;;;;;;;20.25;5.47;;;;;;;;;;4992969;28;20061;-61
2021/12/29 02:41:30;;;;;;;26.00;4.88;;;;;;;;;;4993165;28;20031;-60
2021/12/29 02:44:01;;;;;;;27.15;5.32;;;;;;;;;;4992361;28;20069;-61
2021/12/29 02:46:29;;;;;;;26.35;5.10;;;;;;;;;;4992986;28;20022;-63
2021/12/29 02:49:02;;;;;;;21.80;5.05;;;;;;;;;;4990943;28;20128;-63
2021/12/29 02:51:33;;;;;;;22.02;5.70;;;;;;;;;;4993084;28;20014;-62
2021/12/29 02:54:01;;;;;;;22.63;4.95;;;;;;;;;;4992147;28;20026;-61
2021/12/29 02:56:28;;;;;;;21.85;5.05;;;;;;;;;;4992949;28;20073;-62
2021/12/29 02:58:56;;;;;;;15.85;4.90;;;;;;;;;;4992520;28;20204;-61
2021/12/29 03:01:23;;;;;;;23.83;4.90;;;;;;;;;;4991018;28;20021;-62
2021/12/29 03:03:50;;;;;;;19.33;4.43;;;;;;;;;;4992393;28;20474;-63
2021/12/29 03:06:17;;;;;;;23.02;5.40;;;;;;;;;;4992699;28;20073;-64
2021/12/29 03:08:45;;;;;;;19.85;4.47;;;;;;;;;;4993144;28;20026;-63
2021/12/29 03:11:12;;;;;;;18.48;4.40;;;;;;;;;;4992223;28;20102;-61
2021/12/29 03:13:40;;;;;;;24.75;4.82;;;;;;;;;;4990579;28;20026;-63
2021/12/29 03:16:08;;;;;;;15.68;4.40;;;;;;;;;;4991921;28;20036;-64
2021/12/29 03:18:35;;;;;;;18.35;4.20;;;;;;;;;;4992801;28;20026;-65
2021/12/29 03:21:02;;;;;;;19.27;4.30;;;;;;;;;;4992453;28;20022;-64
2021/12/29 03:23:30;;;;;;;14.68;4.70;;;;;;;;;;4991765;28;20122;-63
2021/12/29 03:25:57;;;;;;;25.92;4.47;;;;;;;;;;4989923;28;20084;-62
2021/12/29 03:28:25;;;;;;;18.67;4.50;;;;;;;;;;4992077;28;20038;-63
2021/12/29 03:30:54;;;;;;;18.38;4.30;;;;;;;;;;4992114;28;20065;-62
2021/12/29 03:33:22;;;;;;;13.57;4.47;;;;;;;;;;4991698;28;20062;-63
2021/12/29 03:35:51;;;;;;;12.57;4.28;;;;;;;;;;4990347;28;20019;-64
2021/12/29 03:38:25;;;;;;;20.05;4.18;;;;;;;;;;4991154;28;20022;-63
2021/12/29 03:40:53;;;;;;;17.33;4.28;;;;;;;;;;4992381;28;20030;-62
2021/12/29 03:43:20;;;;;;;19.63;4.53;;;;;;;;;;4992104;28;20097;-64
2021/12/29 03:45:48;;;;;;;17.42;4.32;;;;;;;;;;4990897;28;20058;-64
2021/12/29 03:48:15;;;;;;;15.73;4.00;;;;;;;;;;4990070;28;20038;-62
2021/12/29 03:50:43;;;;;;;14.55;4.05;;;;;;;;;;4992027;28;20022;-63
2021/12/29 03:53:12;;;;;;;13.20;3.85;;;;;;;;;;4992017;28;20109;-63
2021/12/29 03:55:40;;;;;;;16.20;4.00;;;;;;;;;;4990737;28;20505;-61
2021/12/29 03:58:06;;;;;;;15.50;3.88;;;;;;;;;;4992068;28;20102;-61
2021/12/29 04:00:33;;;;;;;14.98;3.78;;;;;;;;;;4989779;28;20085;-61
2021/12/29 04:03:00;;;;;;;15.73;4.10;;;;;;;;;;4991712;28;20543;-60
2021/12/29 04:05:28;;;;;;;9.85;3.80;;;;;;;;;;4991646;28;20030;-62
2021/12/29 04:07:56;;;;;;;13.02;4.28;;;;;;;;;;4991826;28;20117;-63
2021/12/29 04:10:23;;;;;;;20.00;4.13;;;;;;;;;;4991347;28;20019;-62
2021/12/29 04:12:50;;;;;;;16.75;3.75;;;;;;;;;;4989675;28;20045;-61
2021/12/29 04:15:18;;;;;;;15.48;4.07;;;;;;;;;;4989921;28;20023;-62
2021/12/29 04:17:46;;;;;;;19.05;4.10;;;;;;;;;;4991274;28;20023;-62
2021/12/29 04:23:00;;;;;;;11.48;3.45;;;;;;;;;;4990777;28;20042;-63
2021/12/29 04:25:27;;;;;;;14.05;3.10;;;;;;;;;;4989521;28;20058;-62
2021/12/29 04:27:55;;;;;;;16.40;3.55;;;;;;;;;;4991786;28;20049;-61
2021/12/29 04:30:22;;;;;;;13.35;3.70;;;;;;;;;;4991809;28;20122;-63
2021/12/29 04:32:52;;;;;;;13.57;3.38;;;;;;;;;;4992002;28;20556;-61
2021/12/29 04:35:19;;;;;;;12.65;3.70;;;;;;;;;;4989264;28;20064;-63
2021/12/29 04:37:46;;;;;;;13.05;3.58;;;;;;;;;;4990736;28;20048;-62
2021/12/29 04:40:14;;;;;;;10.73;3.67;;;;;;;;;;4992080;28;20430;-62
2021/12/29 04:42:40;;;;;;;11.05;3.10;;;;;;;;;;4991844;28;20030;-63
2021/12/29 04:45:08;;;;;;;12.65;3.42;;;;;;;;;;4990912;28;20692;-61
2021/12/29 04:47:39;;;;;;;10.23;2.95;;;;;;;;;;4992356;28;20042;-62
2021/12/29 04:50:13;;;;;;;15.20;4.03;;;;;;;;;;4994865;28;20076;-61
2021/12/29 04:52:40;;;;;;;10.57;3.13;;;;;;;;;;4995380;28;20069;-62
2021/12/29 04:55:07;;;;;;;13.65;3.25;;;;;;;;;;4994220;28;20030;-61
2021/12/29 04:57:34;;;;;;;7.50;2.83;;;;;;;;;;4995284;28;20034;-63
2021/12/29 05:00:01;;;;;;;11.43;3.30;;;;;;;;;;4993136;28;20391;-63
2021/12/29 05:02:28;;;;;;;9.70;3.40;;;;;;;;;;4994828;28;20034;-62
2021/12/29 05:05:00;;;;;;;10.73;3.08;;;;;;;;;;4994145;28;20030;-62
2021/12/29 05:10:12;;;;;;;10.40;3.20;;;;;;;;;;4995081;28;20044;-60
2021/12/29 05:12:39;;;;;;;14.00;3.25;;;;;;;;;;4992273;28;20431;-62
2021/12/29 05:15:06;;;;;;;9.15;2.90;;;;;;;;;;4994810;28;20022;-64
2021/12/29 05:17:33;;;;;;;8.60;3.10;;;;;;;;;;4993736;28;20080;-64
2021/12/29 05:20:01;;;;;;;8.75;2.92;;;;;;;;;;4994735;28;20031;-63
2021/12/29 05:22:28;;;;;;;11.88;3.25;;;;;;;;;;4994611;28;20029;-63
2021/12/29 05:24:55;;;;;;;7.32;3.13;;;;;;;;;;4990529;28;20026;-63
2021/12/29 05:27:22;;;;;;;8.27;2.92;;;;;;;;;;4994598;28;20034;-63
2021/12/29 05:29:49;;;;;;;13.25;3.17;;;;;;;;;;4994580;28;20089;-63
2021/12/29 05:32:16;;;;;;;13.60;3.38;;;;;;;;;;4994546;28;20035;-62
2021/12/29 05:34:43;;;;;;;8.15;2.80;;;;;;;;;;4993293;28;20026;-60
2021/12/29 05:37:10;;;;;;;11.07;2.78;;;;;;;;;;4992191;28;20396;-64
2021/12/29 05:39:37;;;;;;;11.10;3.00;;;;;;;;;;4994466;28;20161;-63
2021/12/29 05:42:04;;;;;;;9.43;2.50;;;;;;;;;;4992947;28;20057;-64
2021/12/29 05:44:31;;;;;;;13.93;3.20;;;;;;;;;;4994452;28;20493;-63
2021/12/29 05:46:58;;;;;;;10.27;2.90;;;;;;;;;;4992388;28;20042;-63
2021/12/29 05:49:25;;;;;;;9.30;2.90;;;;;;;;;;4992865;28;20057;-64
2021/12/29 05:51:52;;;;;;;8.07;2.78;;;;;;;;;;4994391;28;20019;-65
2021/12/29 05:54:19;;;;;;;10.15;2.80;;;;;;;;;;4993823;28;20026;-65
2021/12/29 05:56:46;;;;;;;9.45;3.10;;;;;;;;;;4993507;28;20549;-64
2021/12/29 05:59:13;;;;;;;5.30;2.70;;;;;;;;;;4992585;28;20030;-63
2021/12/29 06:01:42;;;;;;;9.57;2.60;;;;;;;;;;4992878;28;20029;-65
2021/12/29 06:04:10;;;;;;;9.90;3.03;;;;;;;;;;4993799;28;20471;-64
2021/12/29 06:06:37;;;;;;;7.85;2.80;;;;;;;;;;4993271;28;20069;-64
2021/12/29 06:09:04;;;;;;;7.93;2.80;;;;;;;;;;4993944;28;20498;-64
2021/12/29 06:11:31;;;;;;;13.13;3.65;;;;;;;;;;4991816;28;20026;-65
2021/12/29 06:13:58;;;;;;;5.75;2.38;;;;;;;;;;4993156;28;20054;-65
2021/12/29 06:16:27;;;;;;;6.03;2.22;;;;;;;;;;4992722;28;20030;-65
2021/12/29 06:18:55;;;;;;;12.20;2.70;;;;;;;;;;4992985;28;20034;-64
2021/12/29 06:21:22;;;;;;;6.15;2.42;;;;;;;;;;4993645;28;20030;-64
2021/12/29 06:23:49;;;;;;;6.65;2.65;;;;;;;;;;4991923;28;20486;-64
2021/12/29 06:26:16;;;;;;;6.68;2.45;;;;;;;;;;4992111;28;20040;-64
2021/12/29 06:28:44;;;;;;;6.05;2.25;;;;;;;;;;4993160;28;20058;-63
2021/12/29 06:31:11;;;;;;;9.75;2.80;;;;;;;;;;4993575;28;20014;-63
2021/12/29 06:33:38;;;;;;;8.07;2.50;;;;;;;;;;4993279;28;20030;-61
2021/12/29 06:36:05;;;;;;;4.70;2.47;;;;;;;;;;4990144;28;20037;-62
2021/12/29 06:38:34;;;;;;;6.07;2.30;;;;;;;;;;4993276;28;20036;-62
2021/12/29 06:41:01;;;;;;;7.25;2.47;;;;;;;;;;4991335;28;20033;-59
2021/12/29 06:43:28;;;;;;;7.82;2.60;;;;;;;;;;4992631;28;20034;-61
2021/12/29 06:45:55;;;;;;;5.82;2.45;;;;;;;;;;4992859;28;20370;-62
2021/12/29 06:48:23;;;;;;;7.82;2.42;;;;;;;;;;4990675;28;20073;-61
2021/12/29 06:50:50;;;;;;;6.47;2.50;;;;;;;;;;4993173;28;20018;-63
2021/12/29 06:53:17;;;;;;;6.28;2.25;;;;;;;;;;4993168;28;20077;-62
2021/12/29 06:55:44;;;;;;;7.00;2.30;;;;;;;;;;4991805;28;20119;-62
2021/12/29 06:58:12;;;;;;;6.43;2.03;;;;;;;;;;4993000;28;20022;-61
2021/12/29 07:00:39;;;;;;;9.93;3.03;;;;;;;;;;4990665;28;20031;-60
2021/12/29 07:03:06;;;;;;;5.30;2.17;;;;;;;;;;4992374;28;20386;-61
2021/12/29 07:05:33;;;;;;;7.55;2.40;;;;;;;;;;4992186;28;20027;-62
2021/12/29 07:08:00;;;;;;;3.90;2.00;;;;;;;;;;4992376;28;20031;-62
2021/12/29 07:10:27;;;;;;;6.95;2.20;;;;;;;;;;4991594;28;20200;-61
2021/12/29 07:12:54;;;;;;;4.85;2.30;;;;;;;;;;4991236;28;20019;-61
2021/12/29 07:15:21;;;;;;;5.97;2.22;;;;;;;;;;4992196;28;20037;-62
2021/12/29 07:17:48;;;;;;;4.93;2.25;;;;;;;;;;4991799;28;20049;-62
2021/12/29 07:20:15;;;;;;;6.75;2.17;;;;;;;;;;4992481;28;20033;-62
2021/12/29 07:22:42;;;;;;;5.78;2.05;;;;;;;;;;4992219;28;20023;-61
2021/12/29 07:25:10;;;;;;;4.82;2.00;;;;;;;;;;4990939;28;20105;-61
2021/12/29 07:27:37;;;;;;;4.85;2.08;;;;;;;;;;4991323;28;20042;-62
2021/12/29 07:30:04;;;;;;;8.73;2.22;;;;;;;;;;4992266;28;20054;-63
2021/12/29 07:32:31;;;;;;;7.00;2.22;;;;;;;;;;4992649;28;20049;-63
2021/12/29 07:34:59;;;;;;;4.75;2.03;;;;;;;;;;4991058;28;20026;-62
2021/12/29 07:37:26;;;;;;;5.00;2.08;;;;;;;;;;4989980;28;20070;-62
2021/12/29 07:39:53;;;;;;;6.30;2.08;;;;;;;;;;4992359;28;20089;-62
2021/12/29 07:42:20;;;;;;;6.60;2.45;;;;;;;;;;4992212;28;20039;-63
2021/12/29 07:44:49;;;;;;;5.45;2.38;;;;;;;;;;4991751;28;20034;-62
2021/12/29 07:47:16;;;;;;;5.38;2.03;;;;;;;;;;4989999;28;20038;-61
2021/12/29 07:49:43;;;;;;;8.55;2.38;;;;;;;;;;4991052;28;20023;-61
2021/12/29 07:52:10;;;;;;;4.43;2.10;;;;;;;;;;4990713;28;20034;-64
2021/12/29 07:54:37;;;;;;;5.22;2.20;;;;;;;;;;4991869;28;20033;-63
2021/12/29 07:57:04;;;;;;;3.97;1.98;;;;;;;;;;4991436;28;20022;-64
2021/12/29 07:59:31;;;;;;;5.30;2.10;;;;;;;;;;4990349;28;20133;-63
2021/12/29 08:01:58;;;;;;;5.25;2.10;;;;;;;;;;4991506;28;20029;-63
2021/12/29 08:04:25;;;;;;;3.78;1.70;;;;;;;;;;4991902;28;20105;-64
2021/12/29 08:06:53;;;;;;;7.50;2.13;;;;;;;;;;4990865;28;20037;-61
2021/12/29 08:09:20;;;;;;;4.82;1.92;;;;;;;;;;4991961;28;20062;-62
2021/12/29 08:11:47;;;;;;;5.38;1.90;;;;;;;;;;4990057;28;20035;-61
2021/12/29 08:14:14;;;;;;;4.90;2.72;;;;;;;;;;4991762;28;20030;-63
2021/12/29 08:16:41;;;;;;;5.55;2.00;;;;;;;;;;4989924;28;20394;-64
2021/12/29 08:19:08;;;;;;;4.45;1.95;;;;;;;;;;4990728;28;20030;-63
2021/12/29 08:21:35;;;;;;;4.07;1.80;;;;;;;;;;4994314;28;20022;-61
2021/12/29 08:24:02;;;;;;;6.22;1.95;;;;;;;;;;4993752;28;20821;-66
2021/12/29 08:26:29;;;;;;;4.72;1.85;;;;;;;;;;4995007;28;20042;-66
2021/12/29 08:28:58;;;;;;;7.88;2.25;;;;;;;;;;4995328;28;20495;-67
2021/12/29 08:31:26;;;;;;;8.93;1.95;;;;;;;;;;4995814;28;20026;-66
2021/12/29 08:33:53;;;;;;;8.98;2.00;;;;;;;;;;4995567;28;20364;-65
2021/12/29 08:36:20;;;;;;;8.27;1.70;;;;;;;;;;4993313;28;20023;-65
2021/12/29 08:38:47;;;;;;;5.88;2.22;;;;;;;;;;4994885;28;20054;-66
2021/12/29 08:41:14;;;;;;;7.82;2.40;;;;;;;;;;4995608;28;20038;-66
2021/12/29 08:43:41;;;;;;;11.77;2.20;;;;;;;;;;4994244;28;20026;-65
2021/12/29 08:46:08;;;;;;;6.05;1.65;;;;;;;;;;4995139;28;20113;-63
2021/12/29 08:48:40;;;;;;;8.20;1.85;;;;;;;;;;4993638;28;20050;-65
2021/12/29 08:51:07;;;;;;;6.05;2.08;;;;;;;;;;4995303;28;20035;-64
2021/12/29 08:53:34;;;;;;;6.85;2.00;;;;;;;;;;4995386;28;20027;-66
2021/12/29 08:56:01;;;;;;;9.23;2.30;;;;;;;;;;4994717;28;20102;-64
2021/12/29 08:58:28;;;;;;;4.05;1.58;;;;;;;;;;4994301;28;20065;-62
2021/12/29 09:00:59;;;;;;;5.85;1.90;;;;;;;;;;4993540;28;20026;-65
2021/12/29 09:03:26;;;;;;;9.23;1.73;;;;;;;;;;4995186;28;20019;-64
2021/12/29 09:05:54;;;;;;;7.22;2.00;;;;;;;;;;4995091;28;20014;-64
2021/12/29 09:08:21;;;;;;;6.95;2.05;;;;;;;;;;4994030;28;20474;-62
2021/12/29 09:10:48;;;;;;;9.82;2.00;;;;;;;;;;4992855;28;20491;-61
2021/12/29 09:13:15;;;;;;;6.18;1.65;;;;;;;;;;4993656;28;20089;-62
2021/12/29 09:15:43;;;;;;;7.40;2.08;;;;;;;;;;4994776;28;20026;-62
2021/12/29 09:18:10;;;;;;;6.85;1.70;;;;;;;;;;4994657;28;20026;-62
2021/12/29 09:20:45;;;;;;;3.55;1.60;;;;;;;;;;4994718;28;20483;-61
2021/12/29 09:23:13;;;;;;;6.45;1.80;;;;;;;;;;4991983;28;20038;-62
2021/12/29 09:25:41;;;;;;;7.75;2.08;;;;;;;;;;4993681;28;20026;-62
2021/12/29 09:28:10;;;;;;;7.75;1.83;;;;;;;;;;4993850;28;20038;-61
2021/12/29 09:30:39;;;;;;;3.72;1.42;;;;;;;;;;4994702;28;20042;-63
2021/12/29 09:33:07;;;;;;;12.13;1.75;;;;;;;;;;4993752;28;20137;-62
2021/12/29 09:35:34;;;;;;;4.40;1.88;;;;;;;;;;4992899;28;20096;-62
2021/12/29 09:38:04;;;;;;;4.95;1.70;;;;;;;;;;4992974;28;20042;-63
2021/12/29 09:40:31;;;;;;;5.93;1.90;;;;;;;;;;4994623;28;20395;-63
2021/12/29 09:42:58;;;;;;;4.55;2.40;;;;;;;;;;4994831;28;20026;-62
2021/12/29 09:45:25;;;;;;;6.53;2.03;;;;;;;;;;4994410;28;20019;-62
2021/12/29 09:47:53;;;;;;;6.93;2.05;;;;;;;;;;4991595;28;20034;-62
2021/12/29 09:50:21;;;;;;;3.47;1.42;;;;;;;;;;4994020;28;20029;-62
2021/12/29 09:52:48;;;;;;;7.25;1.75;;;;;;;;;;4994307;28;20141;-62
2021/12/29 09:55:17;;;;;;;10.50;2.20;;;;;;;;;;4993210;28;20398;-64
2021/12/29 09:57:45;;;;;;;6.65;1.98;;;;;;;;;;4994199;28;20102;-63
2021/12/29 10:00:20;;;;;;;9.93;2.30;;;;;;;;;;4992103;28;20034;-64
2021/12/29 10:02:48;;;;;;;7.68;2.13;;;;;;;;;;4994126;28;20541;-63
2021/12/29 10:05:15;;;;;;;11.43;2.38;;;;;;;;;;4993804;28;20045;-63
2021/12/29 10:07:42;;;;;;;7.95;1.88;;;;;;;;;;4993044;28;20035;-65
2021/12/29 10:10:17;;;;;;;3.95;1.88;;;;;;;;;;4993377;28;20505;-63
2021/12/29 10:12:45;;;;;;;5.85;1.70;;;;;;;;;;4991902;28;20034;-62
2021/12/29 10:15:12;;;;;;;4.88;1.75;;;;;;;;;;4993672;28;20104;-63
2021/12/29 10:17:39;;;;;;;3.42;1.70;;;;;;;;;;4993615;28;20093;-65
2021/12/29 10:20:10;;;;;;;6.57;1.83;;;;;;;;;;4993031;28;20102;-63
2021/12/29 10:22:38;;;;;;;5.07;1.70;;;;;;;;;;4993199;28;20419;-62
2021/12/29 10:25:17;;;;;;;4.90;1.55;;;;;;;;;;4992313;28;20105;-63
2021/12/29 10:27:44;;;;;;;7.40;1.77;;;;;;;;;;4992639;28;20094;-63
2021/12/29 10:30:19;;;;;;;4.60;1.77;;;;;;;;;;4993612;28;20042;-62
2021/12/29 10:32:47;;;;;;;11.65;1.75;;;;;;;;;;4993423;28;20142;-64
2021/12/29 10:35:40;;;;;;;14.18;1.90;;;;;;;;;;4992316;28;20034;-62
2021/12/29 10:38:13;;;;;;;8.75;1.90;;;;;;;;;;4989569;28;20039;-63
2021/12/29 10:40:40;;;;;;;6.82;1.75;;;;;;;;;;4993589;28;20037;-62
2021/12/29 10:43:07;;;;;;;9.57;2.17;;;;;;;;;;4993081;28;20076;-63
2021/12/29 10:45:38;;;;;;;6.60;2.00;;;;;;;;;;4992099;28;20038;-61
2021/12/29 10:48:19;;;;;;;12.07;1.83;;;;;;;;;;4991192;28;20501;-64
2021/12/29 10:51:04;;;;;;;4.95;1.60;;;;;;;;;;4993444;28;20033;-64
2021/12/29 10:53:32;;;;;;;6.30;1.63;;;;;;;;;;4993121;28;20040;-63
2021/12/29 10:56:00;;;;;;;5.95;1.40;;;;;;;;;;4993165;28;20442;-64
2021/12/29 10:58:28;;;;;;;5.18;1.63;;;;;;;;;;4991857;28;20514;-65
2021/12/29 11:01:00;;;;;;;8.30;1.70;;;;;;;;;;4991502;28;20077;-65
2021/12/29 11:03:27;;;;;;;10.35;1.80;;;;;;;;;;4993281;28;20392;-64
2021/12/29 11:05:59;;;;;;;5.57;1.80;;;;;;;;;;4992892;28;20042;-65
2021/12/29 11:08:34;;;;;;;11.35;2.10;;;;;;;;;;4991992;28;20038;-63
2021/12/29 11:11:06;;;;;;;7.20;1.98;;;;;;;;;;4991921;28;20030;-66
2021/12/29 11:13:33;;;;;;;7.95;1.73;;;;;;;;;;4991770;28;20027;-61
2021/12/29 11:16:01;;;;;;;5.45;1.80;;;;;;;;;;4992201;28;20030;-64
2021/12/29 11:18:40;;;;;;;6.78;2.00;;;;;;;;;;4992422;28;20061;-65
2021/12/29 11:21:07;;;;;;;6.20;1.67;;;;;;;;;;4991565;28;20034;-66
2021/12/29 11:23:41;;;;;;;8.88;1.90;;;;;;;;;;4991119;28;20550;-66
2021/12/29 11:26:11;;;;;;;6.00;1.73;;;;;;;;;;4992289;28;20029;-64
2021/12/29 11:28:39;;;;;;;8.50;1.90;;;;;;;;;;4991170;28;20133;-66
2021/12/29 11:31:08;;;;;;;5.85;1.33;;;;;;;;;;4992417;28;20029;-64
2021/12/29 11:33:36;;;;;;;7.88;1.38;;;;;;;;;;4992158;28;20037;-66
2021/12/29 11:36:04;;;;;;;13.35;1.70;;;;;;;;;;4990141;28;20034;-64
2021/12/29 11:38:31;;;;;;;7.95;2.03;;;;;;;;;;4992108;28;20690;-65
2021/12/29 11:40:59;;;;;;;6.97;2.30;;;;;;;;;;4991970;28;20025;-65
2021/12/29 11:43:27;;;;;;;7.95;1.50;;;;;;;;;;4992241;28;20027;-65
2021/12/29 11:45:56;;;;;;;10.80;1.85;;;;;;;;;;4992155;28;20022;-64
2021/12/29 11:48:24;;;;;;;4.13;1.40;;;;;;;;;;4989826;28;20038;-65
2021/12/29 11:50:53;;;;;;;5.07;1.95;;;;;;;;;;4991707;28;20181;-64
2021/12/29 11:53:30;;;;;;;8.40;1.92;;;;;;;;;;4992150;28;20156;-65
2021/12/29 11:56:03;;;;;;;8.15;1.52;;;;;;;;;;4991867;28;20030;-63
2021/12/29 11:58:32;;;;;;;7.15;1.90;;;;;;;;;;4990908;28;20026;-62
2021/12/29 12:01:02;;;;;;;7.25;1.73;;;;;;;;;;4990112;28;20026;-62
2021/12/29 12:03:39;;;;;;;8.23;1.30;;;;;;;;;;4992196;28;20030;-62
2021/12/29 12:06:06;;;;;;;8.68;1.83;;;;;;;;;;4991604;28;20387;-63
2021/12/29 12:08:33;;;;;;;6.57;1.73;;;;;;;;;;4991605;28;20023;-63
2021/12/29 12:11:01;;;;;;;4.72;2.17;;;;;;;;;;4989824;28;20018;-63
2021/12/29 12:13:29;;;;;;;4.43;1.40;;;;;;;;;;4990464;28;20023;-62
2021/12/29 12:16:09;;;;;;;8.05;1.63;;;;;;;;;;4991926;28;20026;-64
2021/12/29 12:18:52;;;;;;;7.43;1.73;;;;;;;;;;4990949;28;20150;-64
2021/12/29 12:21:45;;;;;;;11.35;1.60;;;;;;;;;;4991829;28;20023;-63
2021/12/29 12:24:17;;;;;;;8.05;1.77;;;;;;;;;;4987104;28;20479;-66
2021/12/29 12:26:43;;;;;;;;;;;;;;;;;;4992302;28;20510;-64
2021/12/29 12:29:14;;;;;;;9.73;3.15;;;;;;;;;;4991057;28;20600;-64
2021/12/29 12:31:41;;;;;;;5.03;1.90;;;;;;;;;;4991785;28;20113;-65
2021/12/29 12:34:09;;;;;;;10.77;1.83;;;;;;;;;;4991885;28;20033;-63
2021/12/29 12:36:36;;;;;;;7.20;1.63;;;;;;;;;;4989936;28;20023;-65
2021/12/29 12:39:14;;;;;;;10.43;1.70;;;;;;;;;;4991523;28;20026;-63
2021/12/29 12:41:46;;;;;;;9.00;2.35;;;;;;;;;;4991706;28;20553;-64
2021/12/29 12:44:13;;;;;;;11.50;1.97;;;;;;;;;;4991672;28;20023;-65
2021/12/29 12:46:44;;;;;;;9.23;1.95;;;;;;;;;;4991138;28;20039;-62
2021/12/29 12:49:18;;;;;;;4.85;1.70;;;;;;;;;;4990217;28;20018;-62
2021/12/29 12:51:58;;;;;;;8.68;2.35;;;;;;;;;;4989945;28;20678;-64
2021/12/29 12:54:27;;;;;;;11.70;2.42;;;;;;;;;;4991775;28;20027;-65
2021/12/29 12:56:56;;;;;;;7.72;2.05;;;;;;;;;;4991642;28;20027;-64
2021/12/29 12:59:34;;;;;;;12.30;1.95;;;;;;;;;;4988834;28;20431;-64
2021/12/29 13:02:11;;;;;;;5.47;1.58;;;;;;;;;;4990967;28;20540;-65
2021/12/29 13:04:43;;;;;;;4.68;1.80;;;;;;;;;;4991584;28;20037;-63
2021/12/29 13:07:10;;;;;;;10.13;2.10;;;;;;;;;;4991659;28;20121;-63
2021/12/29 13:09:49;;;;;;;5.85;1.60;;;;;;;;;;4994324;28;20033;-65
2021/12/29 13:12:25;;;;;;;8.65;1.85;;;;;;;;;;4991903;28;20033;-64
2021/12/29 13:14:58;;;;;;;8.05;2.05;;;;;;;;;;4994660;28;20109;-63
2021/12/29 13:17:25;;;;;;;8.30;2.10;;;;;;;;;;4991544;28;20654;-64
2021/12/29 13:19:52;;;;;;;10.52;1.77;;;;;;;;;;4991608;28;20022;-65
2021/12/29 13:22:31;;;;;;;6.70;1.67;;;;;;;;;;4991018;28;20022;-64
2021/12/29 13:25:15;;;;;;;7.47;1.63;;;;;;;;;;4988987;28;20027;-63
2021/12/29 13:27:43;;;;;;;10.35;2.00;;;;;;;;;;4991390;28;20038;-65
2021/12/29 13:30:12;;;;;;;7.90;1.80;;;;;;;;;;4991120;28;20077;-65
2021/12/29 13:32:52;;;;;;;12.05;2.28;;;;;;;;;;4991548;28;20519;-64
2021/12/29 13:35:27;;;;;;;8.25;2.35;;;;;;;;;;4989951;28;20494;-66
2021/12/29 13:37:56;;;;;;;11.98;1.88;;;;;;;;;;4990725;28;20034;-63
2021/12/29 13:40:34;;;;;;;8.77;1.85;;;;;;;;;;4991583;28;20046;-65
2021/12/29 13:43:02;;;;;;;7.68;1.80;;;;;;;;;;4991502;28;20026;-63
2021/12/29 13:45:34;;;;;;;10.15;2.03;;;;;;;;;;4991025;28;20022;-63
2021/12/29 13:48:01;;;;;;;10.90;2.38;;;;;;;;;;4989198;28;20141;-62
2021/12/29 13:50:29;;;;;;;14.40;2.45;;;;;;;;;;4991118;28;20037;-63
2021/12/29 13:53:00;;;;;;;8.27;1.60;;;;;;;;;;4991021;28;20210;-63
2021/12/29 13:55:28;;;;;;;11.77;2.10;;;;;;;;;;4991398;28;20368;-63
2021/12/29 13:57:57;;;;;;;6.47;1.65;;;;;;;;;;4990641;28;20387;-63
2021/12/29 14:00:24;;;;;;;14.35;2.25;;;;;;;;;;4989360;28;20041;-64
2021/12/29 14:02:51;;;;;;;8.40;1.60;;;;;;;;;;4990540;28;20049;-63
2021/12/29 14:05:19;;;;;;;7.53;2.00;;;;;;;;;;4990629;28;20037;-65
2021/12/29 14:07:46;;;;;;;10.98;2.30;;;;;;;;;;4991239;28;20038;-62
2021/12/29 14:10:14;;;;;;;6.97;2.00;;;;;;;;;;4990376;28;20030;-63
2021/12/29 14:12:42;;;;;;;14.27;2.28;;;;;;;;;;4988831;28;20038;-63
2021/12/29 14:15:13;;;;;;;13.75;2.17;;;;;;;;;;4990723;28;20105;-62
2021/12/29 14:17:42;;;;;;;8.43;2.33;;;;;;;;;;4990639;28;20394;-63
2021/12/29 14:20:10;;;;;;;11.32;2.42;;;;;;;;;;4990592;28;20031;-63
2021/12/29 14:22:37;;;;;;;14.82;2.42;;;;;;;;;;4989730;28;20093;-63
2021/12/29 14:25:11;;;;;;;10.15;2.03;;;;;;;;;;4989334;28;20022;-64
2021/12/29 14:27:39;;;;;;;9.60;2.10;;;;;;;;;;4990670;28;20044;-63
2021/12/29 14:30:32;;;;;;;13.30;2.33;;;;;;;;;;4989778;28;20722;-63
2021/12/29 14:33:01;;;;;;;11.38;2.63;;;;;;;;;;4988732;28;20506;-63
2021/12/29 14:35:35;;;;;;;13.32;2.20;;;;;;;;;;4987740;28;20627;-62
2021/12/29 14:38:09;;;;;;;12.50;1.83;;;;;;;;;;4989530;28;20065;-63
2021/12/29 14:40:37;;;;;;;16.40;2.70;;;;;;;;;;4990666;28;20050;-62
2021/12/29 14:43:11;;;;;;;8.98;2.20;;;;;;;;;;4990268;28;20023;-64
2021/12/29 14:45:46;;;;;;;6.03;1.90;;;;;;;;;;4990154;28;20019;-62
2021/12/29 14:48:13;;;;;;;13.00;2.00;;;;;;;;;;4988660;28;20089;-63
2021/12/29 14:50:43;;;;;;;11.15;2.20;;;;;;;;;;4989792;28;20026;-63